KODX

Details ICAO KODX
Name EVELYN SHARP FLD
Region United States
Timezone America/Chicago (UTC-5.0)
Plans Departing 3
Arriving 0
Stats Elevation 2,070 ft / 631 m (AMSL)
Location 41.623120° -98.951362°
Runways 2
Magnetic Variation 4.630° E
Sunrise 2018-05-24 11:10:06 UTC / 2018-05-24 06:10:06 Local
Sunset 2018-05-25 01:58:07 UTC / 2018-05-24 20:58:07 Local
Advertisement - Login to hide

Runways

ID Width Length Bearing (true) Bearing (mag) Surface Threshold Offset Overrun Length
13 75 ft / 23 m 4,718 ft / 1,438 m 136.20° 131.57° Concrete 0 ft / 0 m 0 ft / 0 m
17 203 ft / 62 m 2,088 ft / 637 m 179.15° 174.52° Dirt 0 ft / 0 m 0 ft / 0 m
31 75 ft / 23 m 4,718 ft / 1,438 m 316.20° 311.57° Concrete 0 ft / 0 m 0 ft / 0 m
35 203 ft / 62 m 2,088 ft / 637 m 359.15° 354.52° Dirt 0 ft / 0 m 0 ft / 0 m

Map

Weather


0- 5 10 15 20 25 30 35+ Temperature / ° C

Clouds and Precipitation
Forecast for 2018-05-24 18:00 UTC. Updated 4 hours ago

Ground ~20,000 ft ~40,000 ft Winds

METAR

KODX 242053Z AUTO 20012G22KT 10SM CLR 29/16 A2992 RMK AO2 SLP122 T02890156 56009

TAF

Not found

Frequencies

Recorded 119.92 MHz ASOS
Unicom 122.80 MHz CTAF/UNICOM
Warning: Do not use this data for real-world aviation or navigation. No guarantee of current accuracy is given.